Time;durP1;ratioP1;P1;durP2;ratioP2;P2;SDS_P1;SDS_P2;PMS_P1;PMS_P2;Temp;Humidity;BMP_temperature;BMP_pressure;BME280_temperature;BME280_humidity;BME280_pressure;Samples;Min_cycle;Max_cycle;Signal;HPM_P1;HPM_P2
2021/06/10 00:00:10;;;;;;;11.45;10.55;;;18.50;99.90;;;;;;5093590;28;20230;-61
2021/06/10 00:02:41;;;;;;;11.95;10.80;;;18.50;99.90;;;;;;5093566;28;20186;-61
2021/06/10 00:05:11;;;;;;;11.18;10.25;;;18.40;99.90;;;;;;5093201;28;20291;-61
2021/06/10 00:07:39;;;;;;;11.68;10.55;;;18.50;99.90;;;;;;5093420;28;20283;-61
2021/06/10 00:10:09;;;;;;;13.60;12.27;;;18.60;99.90;;;;;;5093400;28;20299;-61
2021/06/10 00:12:37;;;;;;;14.35;12.95;;;18.60;99.90;;;;;;5093355;28;20218;-61
2021/06/10 00:15:06;;;;;;;12.77;11.68;;;18.80;99.90;;;;;;5093101;28;20196;-60
2021/06/10 00:17:33;;;;;;;13.93;12.60;;;18.70;99.90;;;;;;5093256;28;20238;-62
2021/06/10 00:20:04;;;;;;;13.00;11.88;;;18.60;99.90;;;;;;5075521;28;20201;-61
2021/06/10 00:22:31;;;;;;;13.52;12.00;;;18.60;99.90;;;;;;5072622;28;20185;-61
2021/06/10 00:24:58;;;;;;;12.90;11.77;;;18.60;99.90;;;;;;5072736;28;20228;-61
2021/06/10 00:27:26;;;;;;;13.75;12.55;;;18.60;99.90;;;;;;5072444;28;20228;-61
2021/06/10 00:29:54;;;;;;;16.08;14.65;;;18.50;99.90;;;;;;5072830;28;20314;-61
2021/06/10 00:32:21;;;;;;;15.48;13.98;;;18.40;99.90;;;;;;5072994;28;20262;-60
2021/06/10 00:34:49;;;;;;;15.25;13.93;;;18.50;99.90;;;;;;5072346;28;20204;-60
2021/06/10 00:37:17;;;;;;;15.20;13.90;;;18.40;99.90;;;;;;5072436;28;20255;-60
2021/06/10 00:39:45;;;;;;;14.60;13.30;;;18.50;99.90;;;;;;5072591;28;20197;-61
2021/06/10 00:42:12;;;;;;;15.15;13.65;;;18.50;99.90;;;;;;5072308;28;20201;-61
2021/06/10 00:44:39;;;;;;;13.60;12.40;;;18.50;99.90;;;;;;5071881;28;20252;-61
2021/06/10 00:47:07;;;;;;;15.80;12.75;;;18.50;99.90;;;;;;5072061;28;20300;-60
2021/06/10 00:49:34;;;;;;;14.07;12.50;;;18.40;99.90;;;;;;5072444;28;20197;-61
2021/06/10 00:52:02;;;;;;;14.05;12.75;;;18.40;99.90;;;;;;5072368;28;20295;-60
2021/06/10 00:54:32;;;;;;;13.88;12.48;;;18.30;99.90;;;;;;5072451;28;20201;-61
2021/06/10 00:56:59;;;;;;;14.63;13.13;;;18.20;99.90;;;;;;5072417;28;20197;-61
2021/06/10 00:59:26;;;;;;;13.93;12.65;;;18.20;99.90;;;;;;5072085;28;20564;-61
2021/06/10 01:01:54;;;;;;;14.38;12.98;;;18.20;99.90;;;;;;5072352;28;20298;-60
2021/06/10 01:04:21;;;;;;;14.95;13.50;;;18.20;99.90;;;;;;5071899;28;20200;-61
2021/06/10 01:06:56;;;;;;;15.35;13.57;;;18.10;99.90;;;;;;5072189;28;20216;-61
2021/06/10 01:09:28;;;;;;;13.95;12.75;;;18.10;99.90;;;;;;5072147;28;20185;-61
2021/06/10 01:12:05;;;;;;;15.02;13.63;;;18.20;99.90;;;;;;5072293;28;20272;-60
2021/06/10 01:14:40;;;;;;;14.98;13.38;;;18.20;99.90;;;;;;5072261;28;20181;-61
2021/06/10 01:17:08;;;;;;;15.13;13.63;;;18.20;99.90;;;;;;5071936;28;20715;-61
2021/06/10 01:20:01;;;;;;;16.20;14.63;;;18.20;99.90;;;;;;5085858;28;20200;-60
2021/06/10 01:22:37;;;;;;;16.02;14.63;;;18.20;99.90;;;;;;5092372;28;20234;-60
2021/06/10 01:25:15;;;;;;;18.08;15.50;;;18.10;99.90;;;;;;5091854;28;20210;-60
2021/06/10 01:27:46;;;;;;;18.52;16.60;;;18.10;99.90;;;;;;5092034;28;20227;-61
2021/06/10 01:30:17;;;;;;;22.23;19.90;;;18.10;99.90;;;;;;5092275;28;20211;-61
2021/06/10 01:32:48;;;;;;;21.75;19.52;;;18.10;99.90;;;;;;5091912;28;20583;-62
2021/06/10 01:35:16;;;;;;;20.80;18.80;;;18.10;99.90;;;;;;5091687;28;20659;-61
2021/06/10 01:37:45;;;;;;;21.00;19.00;;;18.10;99.90;;;;;;5092215;28;20204;-60
2021/06/10 01:40:14;;;;;;;20.23;18.15;;;18.10;99.90;;;;;;5091858;28;20678;-61
2021/06/10 01:42:44;;;;;;;19.95;18.05;;;18.10;99.90;;;;;;5092121;28;20211;-60
2021/06/10 01:45:13;;;;;;;21.98;19.67;;;18.10;99.90;;;;;;5092028;28;20569;-61
2021/06/10 01:47:44;;;;;;;19.17;17.38;;;18.00;99.90;;;;;;5092047;28;20196;-61
2021/06/10 01:50:13;;;;;;;20.20;18.27;;;18.00;99.90;;;;;;5091648;28;20587;-61
2021/06/10 01:52:42;;;;;;;20.10;17.98;;;18.10;99.90;;;;;;5092068;28;20291;-60
2021/06/10 01:55:15;;;;;;;21.17;19.08;;;18.00;99.90;;;;;;5091720;28;20282;-60
2021/06/10 01:57:45;;;;;;;19.98;18.00;;;17.90;99.90;;;;;;5094588;28;20184;-62
2021/06/10 02:00:15;;;;;;;19.90;17.88;;;17.80;99.90;;;;;;5095905;28;20196;-60
2021/06/10 02:02:44;;;;;;;20.33;18.35;;;17.70;99.90;;;;;;5095892;28;20288;-61
2021/06/10 02:05:13;;;;;;;20.33;18.33;;;17.70;99.90;;;;;;5095512;28;20234;-61
2021/06/10 02:07:42;;;;;;;21.13;18.98;;;17.70;99.90;;;;;;5095922;28;20199;-62
2021/06/10 02:10:14;;;;;;;21.05;18.95;;;17.60;99.90;;;;;;5095469;28;20660;-61
2021/06/10 02:12:44;;;;;;;21.02;18.83;;;17.50;99.90;;;;;;5095724;28;20189;-61
2021/06/10 02:15:13;;;;;;;20.30;18.23;;;17.50;99.90;;;;;;5095646;28;20354;-61
2021/06/10 02:17:42;;;;;;;20.63;18.67;;;17.50;99.90;;;;;;5095334;28;20210;-60
2021/06/10 02:20:14;;;;;;;20.33;18.23;;;17.50;99.90;;;;;;5076332;28;20674;-61
2021/06/10 02:22:41;;;;;;;22.02;19.80;;;17.50;99.90;;;;;;5075373;28;20185;-60
2021/06/10 02:25:09;;;;;;;22.08;19.77;;;17.50;99.90;;;;;;5075110;28;20203;-60
2021/06/10 02:27:37;;;;;;;23.73;19.92;;;17.50;99.90;;;;;;5074777;28;20229;-61
2021/06/10 02:30:08;;;;;;;20.85;18.67;;;17.40;99.90;;;;;;5075112;28;20200;-61
2021/06/10 02:32:36;;;;;;;20.05;18.00;;;17.40;99.90;;;;;;5074795;28;20275;-61
2021/06/10 02:35:06;;;;;;;19.80;18.00;;;17.30;99.90;;;;;;5074805;28;20288;-61
2021/06/10 02:37:35;;;;;;;21.40;19.35;;;17.40;99.90;;;;;;5074611;28;20654;-61
2021/06/10 02:40:08;;;;;;;19.48;17.48;;;17.40;99.90;;;;;;5074879;28;20196;-61
2021/06/10 02:42:36;;;;;;;19.92;18.10;;;17.50;99.90;;;;;;5074760;28;20674;-61
2021/06/10 02:45:07;;;;;;;18.25;16.55;;;17.60;99.90;;;;;;5074680;28;20197;-61
2021/06/10 02:47:35;;;;;;;18.55;16.65;;;17.70;99.90;;;;;;5074750;28;20204;-60
2021/06/10 02:50:07;;;;;;;18.67;16.77;;;17.80;99.90;;;;;;5074161;28;20767;-61
2021/06/10 02:52:35;;;;;;;17.88;16.17;;;17.90;99.90;;;;;;5074862;28;20180;-61
2021/06/10 02:55:04;;;;;;;17.50;15.80;;;17.80;99.90;;;;;;5074650;28;20201;-61
2021/06/10 02:57:31;;;;;;;17.80;16.20;;;17.70;99.90;;;;;;5074641;28;20196;-60
2021/06/10 03:00:00;;;;;;;19.48;17.38;;;17.80;99.90;;;;;;5074266;28;20259;-61
2021/06/10 03:02:32;;;;;;;17.27;15.50;;;17.70;99.90;;;;;;5074195;28;20669;-62
2021/06/10 03:05:00;;;;;;;18.50;16.70;;;17.70;99.90;;;;;;5074190;28;20184;-61
2021/06/10 03:07:27;;;;;;;17.02;15.32;;;17.70;99.90;;;;;;5074054;28;20254;-62
2021/06/10 03:09:55;;;;;;;17.98;16.27;;;17.70;99.90;;;;;;5073442;28;20211;-62
2021/06/10 03:12:23;;;;;;;16.23;14.73;;;17.70;99.90;;;;;;5074352;28;20197;-61
2021/06/10 03:14:51;;;;;;;18.20;16.48;;;17.50;99.90;;;;;;5074202;28;20205;-62
2021/06/10 03:17:19;;;;;;;17.95;15.95;;;17.50;99.90;;;;;;5074247;28;20197;-61
2021/06/10 03:19:49;;;;;;;17.23;15.52;;;17.60;99.90;;;;;;5088971;28;20204;-61
2021/06/10 03:22:17;;;;;;;17.20;15.55;;;17.60;99.90;;;;;;5094229;28;20180;-60
2021/06/10 03:24:45;;;;;;;18.63;16.70;;;17.60;99.90;;;;;;5094275;28;20204;-60
2021/06/10 03:27:13;;;;;;;17.05;15.25;;;17.60;99.90;;;;;;5093845;28;20244;-61
2021/06/10 03:29:41;;;;;;;17.63;15.93;;;17.50;99.90;;;;;;5094252;28;20291;-60
2021/06/10 03:32:09;;;;;;;18.33;16.38;;;17.50;99.90;;;;;;5093866;28;20207;-61
2021/06/10 03:34:38;;;;;;;19.80;17.80;;;17.50;99.90;;;;;;5093925;28;20277;-61
2021/06/10 03:37:07;;;;;;;19.23;17.33;;;17.60;99.90;;;;;;5093898;28;20224;-61
2021/06/10 03:39:36;;;;;;;19.63;17.70;;;17.60;99.90;;;;;;5093991;28;20278;-61
2021/06/10 03:42:04;;;;;;;19.33;17.48;;;17.70;99.90;;;;;;5093927;28;20295;-60
2021/06/10 03:44:33;;;;;;;19.67;17.48;;;17.70;99.90;;;;;;5093598;28;20200;-61
2021/06/10 03:47:01;;;;;;;18.85;17.05;;;17.70;99.90;;;;;;5093540;28;20223;-61
2021/06/10 03:49:29;;;;;;;19.55;17.65;;;17.70;99.90;;;;;;5093635;28;20235;-60
2021/06/10 03:51:56;;;;;;;18.77;17.08;;;17.70;99.90;;;;;;5093727;28;20292;-61
2021/06/10 03:54:25;;;;;;;18.67;16.85;;;17.70;99.90;;;;;;5093772;28;20200;-61
2021/06/10 03:56:52;;;;;;;19.23;17.33;;;17.60;99.90;;;;;;5093646;28;20253;-61
2021/06/10 03:59:20;;;;;;;18.83;17.05;;;17.60;99.90;;;;;;5093306;28;20554;-61
2021/06/10 04:01:47;;;;;;;18.13;16.40;;;17.60;99.90;;;;;;5093624;28;20200;-60
2021/06/10 04:04:16;;;;;;;19.30;17.30;;;17.60;99.90;;;;;;5093335;28;20360;-61
2021/06/10 04:06:43;;;;;;;18.20;16.30;;;17.60;99.90;;;;;;5092908;28;20310;-62
2021/06/10 04:09:11;;;;;;;19.08;17.35;;;17.70;99.90;;;;;;5093373;28;20239;-60
2021/06/10 04:11:42;;;;;;;18.60;16.70;;;17.80;99.90;;;;;;5093112;28;20774;-61
2021/06/10 04:14:09;;;;;;;17.48;15.82;;;18.00;99.90;;;;;;5093328;28;20188;-61
2021/06/10 04:16:37;;;;;;;17.42;15.68;;;18.10;99.90;;;;;;5093341;28;20200;-61
2021/06/10 04:19:04;;;;;;;17.13;15.55;;;18.10;99.90;;;;;;5083740;28;20254;-61
2021/06/10 04:21:34;;;;;;;16.90;15.40;;;18.20;99.90;;;;;;5072389;28;20201;-60
2021/06/10 04:24:02;;;;;;;17.05;15.43;;;18.10;99.90;;;;;;5073068;28;20284;-61
2021/06/10 04:26:29;;;;;;;18.23;16.27;;;18.10;99.90;;;;;;5072528;28;20224;-61
2021/06/10 04:28:58;;;;;;;17.50;15.68;;;18.10;99.90;;;;;;5072819;28;20188;-60
2021/06/10 04:31:25;;;;;;;17.58;15.75;;;18.20;99.90;;;;;;5070882;28;20197;-61
2021/06/10 04:33:53;;;;;;;16.48;14.77;;;18.30;99.90;;;;;;5073093;28;20200;-61
2021/06/10 04:36:20;;;;;;;19.33;17.30;;;18.50;99.90;;;;;;5072733;28;20691;-61
2021/06/10 04:38:50;;;;;;;19.42;17.45;;;18.60;99.90;;;;;;5073283;28;20203;-61
2021/06/10 04:41:18;;;;;;;18.77;16.98;;;18.80;99.90;;;;;;5073230;28;20180;-61
2021/06/10 04:43:46;;;;;;;18.58;16.70;;;18.80;99.90;;;;;;5073190;28;20196;-61
2021/06/10 04:46:14;;;;;;;19.45;17.45;;;19.00;99.90;;;;;;5073111;28;20307;-61
2021/06/10 04:48:42;;;;;;;18.27;16.52;;;19.10;99.90;;;;;;5072846;28;20291;-61
2021/06/10 04:51:09;;;;;;;18.95;16.95;;;19.50;99.90;;;;;;5072798;28;20300;-61
2021/06/10 04:53:40;;;;;;;17.25;15.40;;;20.50;99.90;;;;;;5073076;28;20206;-61
2021/06/10 04:56:07;;;;;;;16.13;14.43;;;21.70;99.90;;;;;;5072091;28;20185;-61
2021/06/10 04:58:34;;;;;;;16.13;13.20;;;23.10;99.90;;;;;;5072641;28;20300;-61
2021/06/10 05:01:02;;;;;;;14.32;13.02;;;24.50;99.90;;;;;;5072886;28;20208;-62
2021/06/10 05:03:31;;;;;;;12.75;11.50;;;25.60;99.90;;;;;;5073054;28;20204;-61
2021/06/10 05:05:58;;;;;;;13.52;12.25;;;26.40;99.90;;;;;;5072539;28;20201;-61
2021/06/10 05:08:26;;;;;;;12.85;11.68;;;27.30;99.90;;;;;;5072728;28;20197;-61
2021/06/10 05:10:53;;;;;;;13.80;12.40;;;27.80;99.90;;;;;;5072838;28;20201;-61
2021/06/10 05:13:21;;;;;;;13.27;12.02;;;28.00;99.90;;;;;;5072611;28;20949;-61
2021/06/10 05:15:48;;;;;;;13.23;12.02;;;27.90;99.90;;;;;;5072837;28;20196;-61
2021/06/10 05:18:15;;;;;;;12.43;11.30;;;28.20;99.90;;;;;;5075411;28;20592;-61
2021/06/10 05:20:44;;;;;;;13.32;12.02;;;28.50;99.90;;;;;;5092635;28;20203;-62
2021/06/10 05:23:12;;;;;;;10.35;9.45;;;28.70;99.90;;;;;;5092739;28;20628;-62
2021/06/10 05:25:39;;;;;;;12.07;10.98;;;28.90;99.90;;;;;;5092155;28;20200;-61
2021/06/10 05:28:06;;;;;;;10.05;9.13;;;28.90;99.90;;;;;;5072283;28;20278;-62
2021/06/10 05:30:34;;;;;;;11.68;10.57;;;29.00;99.90;;;;;;5072231;28;20610;-61
2021/06/10 05:33:01;;;;;;;10.40;9.60;;;29.10;99.90;;;;;;5075739;28;20200;-62
2021/06/10 05:35:29;;;;;;;12.77;11.65;;;29.10;99.90;;;;;;5076265;28;20291;-61
2021/06/10 05:37:57;;;;;;;12.73;11.52;;;28.80;99.90;;;;;;5076548;28;20255;-61
2021/06/10 05:40:24;;;;;;;11.77;10.82;;;28.50;99.90;;;;;;5076225;28;20216;-61
2021/06/10 05:42:53;;;;;;;13.40;11.57;;;28.00;99.90;;;;;;5076196;28;20238;-61
2021/06/10 05:45:21;;;;;;;14.05;12.75;;;27.30;99.90;;;;;;5076238;28;20291;-61
2021/06/10 05:47:48;;;;;;;13.98;12.63;;;26.40;99.90;;;;;;5075914;28;20226;-61
2021/06/10 05:50:16;;;;;;;13.43;12.23;;;25.70;99.90;;;;;;5075966;28;20228;-61
2021/06/10 05:52:43;;;;;;;12.73;11.68;;;24.80;99.90;;;;;;5076359;28;20207;-62
2021/06/10 05:55:12;;;;;;;13.88;12.43;;;24.30;99.90;;;;;;5076113;28;20291;-61
2021/06/10 05:57:39;;;;;;;13.50;12.20;;;24.00;99.90;;;;;;5075877;28;20238;-62
2021/06/10 06:00:08;;;;;;;13.73;12.50;;;23.60;99.90;;;;;;5055305;28;20251;-61
2021/06/10 06:02:35;;;;;;;13.57;12.15;;;23.40;99.90;;;;;;5055724;28;20650;-61
2021/06/10 06:05:03;;;;;;;12.90;11.45;;;23.20;99.90;;;;;;5055775;28;20214;-62
2021/06/10 06:07:31;;;;;;;12.93;11.70;;;23.10;99.90;;;;;;5055444;28;20602;-60
2021/06/10 06:09:59;;;;;;;13.05;11.85;;;23.00;99.90;;;;;;5055391;28;20204;-61
2021/06/10 06:12:27;;;;;;;14.55;13.05;;;23.10;99.90;;;;;;5055438;28;20220;-61
2021/06/10 06:14:55;;;;;;;13.00;11.80;;;23.10;99.90;;;;;;5061902;28;20220;-65
2021/06/10 06:17:22;;;;;;;12.55;11.45;;;23.10;99.90;;;;;;5074409;28;20627;-65
2021/06/10 06:19:53;;;;;;;13.40;11.32;;;23.30;99.90;;;;;;5082591;28;20238;-67
2021/06/10 06:22:20;;;;;;;12.77;11.68;;;23.30;99.90;;;;;;5072566;28;20299;-67
2021/06/10 06:24:47;;;;;;;12.30;11.20;;;23.50;99.90;;;;;;5072566;28;20207;-68
2021/06/10 06:27:15;;;;;;;12.20;10.90;;;23.50;99.90;;;;;;5071930;28;20323;-68
2021/06/10 06:29:43;;;;;;;12.68;10.68;;;23.50;99.90;;;;;;5072388;28;20203;-66
2021/06/10 06:32:11;;;;;;;10.63;9.63;;;23.60;99.90;;;;;;5072036;28;20211;-66
2021/06/10 06:34:38;;;;;;;11.18;10.07;;;23.80;99.90;;;;;;5071921;28;20299;-65
2021/06/10 06:37:06;;;;;;;11.95;10.88;;;23.90;99.90;;;;;;5072081;28;20254;-65
2021/06/10 06:39:33;;;;;;;12.18;10.95;;;24.00;99.90;;;;;;5071972;28;20204;-67
2021/06/10 06:42:00;;;;;;;12.55;11.30;;;24.00;99.90;;;;;;5072081;28;20315;-67
2021/06/10 06:44:28;;;;;;;12.68;11.20;;;23.90;99.90;;;;;;5070403;28;20687;-67
2021/06/10 06:46:56;;;;;;;12.63;11.43;;;24.00;99.90;;;;;;5071656;28;20347;-67
2021/06/10 06:49:24;;;;;;;13.23;11.45;;;24.00;99.90;;;;;;5071949;28;20308;-67
2021/06/10 06:51:51;;;;;;;14.18;11.20;;;24.00;99.90;;;;;;5071343;28;20204;-67
2021/06/10 06:54:19;;;;;;;14.85;12.27;;;23.90;99.90;;;;;;5071838;28;20209;-68
2021/06/10 06:56:46;;;;;;;12.65;11.45;;;23.90;99.90;;;;;;5071663;28;20672;-65
2021/06/10 06:59:13;;;;;;;13.40;12.20;;;24.00;99.90;;;;;;5072954;28;20200;-65
2021/06/10 07:01:41;;;;;;;13.50;12.27;;;24.10;99.90;;;;;;5072856;28;20949;-67
2021/06/10 07:04:10;;;;;;;13.18;11.88;;;24.10;99.90;;;;;;5086473;28;20227;-68
2021/06/10 07:06:37;;;;;;;11.48;10.38;;;24.00;99.90;;;;;;5091263;28;20203;-68
2021/06/10 07:09:05;;;;;;;12.30;10.75;;;24.10;99.90;;;;;;5092085;28;20282;-67
2021/06/10 07:11:33;;;;;;;12.88;11.65;;;24.20;99.90;;;;;;5091876;28;20200;-67
2021/06/10 07:14:01;;;;;;;12.25;11.15;;;24.40;99.90;;;;;;5091727;28;20200;-67
2021/06/10 07:16:28;;;;;;;11.80;10.75;;;24.40;99.90;;;;;;5091502;28;20632;-68
2021/06/10 07:18:56;;;;;;;12.35;11.20;;;24.50;99.90;;;;;;5083258;28;20266;-65
2021/06/10 07:21:25;;;;;;;12.82;11.63;;;24.50;99.90;;;;;;5070721;28;20297;-66
2021/06/10 07:23:52;;;;;;;11.80;10.43;;;24.60;99.90;;;;;;5071287;28;20300;-65
2021/06/10 07:26:19;;;;;;;11.73;10.73;;;24.70;99.90;;;;;;5071057;28;20231;-68
2021/06/10 07:28:47;;;;;;;11.43;10.52;;;24.80;99.90;;;;;;5070815;28;20217;-68
2021/06/10 07:31:14;;;;;;;11.57;10.57;;;24.90;99.90;;;;;;5070825;28;20779;-66
2021/06/10 07:33:42;;;;;;;12.80;11.65;;;25.00;99.90;;;;;;5071152;28;20212;-68
2021/06/10 07:36:09;;;;;;;11.38;10.25;;;25.00;99.90;;;;;;5070795;28;20287;-66
2021/06/10 07:38:38;;;;;;;10.48;9.48;;;24.90;99.90;;;;;;5071008;28;20201;-64
2021/06/10 07:41:05;;;;;;;10.18;9.27;;;24.90;99.90;;;;;;5071004;28;20196;-67
2021/06/10 07:43:33;;;;;;;9.43;8.63;;;25.00;99.90;;;;;;5070482;28;20300;-67
2021/06/10 07:46:01;;;;;;;10.52;9.52;;;25.00;99.90;;;;;;5070455;28;20209;-69
2021/06/10 07:48:29;;;;;;;9.70;8.90;;;25.20;99.90;;;;;;5070445;28;20225;-66
2021/06/10 07:50:57;;;;;;;11.35;10.27;;;25.20;99.90;;;;;;5070428;28;20207;-65
2021/06/10 07:53:24;;;;;;;11.48;10.27;;;25.10;99.90;;;;;;5070534;28;20197;-65
2021/06/10 07:55:55;;;;;;;8.82;8.02;;;25.00;99.90;;;;;;5069693;28;20205;-65
2021/06/10 07:58:23;;;;;;;10.25;8.88;;;24.90;99.90;;;;;;5070456;28;20188;-65
2021/06/10 08:00:51;;;;;;;10.60;9.55;;;24.70;99.90;;;;;;5070296;28;20303;-64
2021/06/10 08:03:18;;;;;;;9.55;8.65;;;24.70;99.90;;;;;;5070025;28;20232;-62
2021/06/10 08:05:46;;;;;;;8.68;7.97;;;24.80;99.90;;;;;;5070036;28;20201;-64
2021/06/10 08:08:14;;;;;;;8.75;8.05;;;24.80;99.90;;;;;;5070317;28;20311;-64
2021/06/10 08:10:41;;;;;;;10.88;9.88;;;24.80;99.90;;;;;;5070200;28;20676;-67
2021/06/10 08:13:10;;;;;;;12.65;10.93;;;25.00;99.90;;;;;;5070538;28;20258;-67
2021/06/10 08:15:38;;;;;;;9.48;8.68;;;24.90;99.90;;;;;;5070485;28;20240;-65
2021/06/10 08:18:06;;;;;;;9.77;8.98;;;24.80;99.90;;;;;;5071407;28;20733;-68
2021/06/10 08:20:34;;;;;;;9.15;8.35;;;24.80;99.90;;;;;;5090045;28;20932;-65
2021/06/10 08:23:03;;;;;;;8.75;7.95;;;24.90;99.90;;;;;;5090598;28;20218;-67
2021/06/10 08:25:32;;;;;;;9.40;8.52;;;24.90;99.90;;;;;;5090553;28;20208;-67
2021/06/10 08:28:02;;;;;;;10.25;9.25;;;25.00;99.90;;;;;;5090166;28;20232;-67
2021/06/10 08:30:31;;;;;;;11.02;9.85;;;24.90;99.90;;;;;;5090458;28;20200;-67
2021/06/10 08:32:58;;;;;;;10.68;9.80;;;24.90;99.90;;;;;;5090226;28;20204;-64
2021/06/10 08:35:26;;;;;;;10.25;9.35;;;24.80;99.90;;;;;;5089724;28;20238;-64
2021/06/10 08:37:54;;;;;;;9.52;8.63;;;24.70;99.90;;;;;;5089827;28;20196;-65
2021/06/10 08:40:22;;;;;;;8.90;8.20;;;24.70;99.90;;;;;;5090113;28;20215;-66
2021/06/10 08:42:49;;;;;;;7.80;7.20;;;24.60;99.90;;;;;;5090316;28;20196;-61
2021/06/10 08:45:18;;;;;;;7.45;6.88;;;24.60;99.90;;;;;;5090068;28;20539;-60
2021/06/10 08:47:49;;;;;;;8.98;8.27;;;24.70;99.90;;;;;;5089803;28;20756;-60
2021/06/10 08:50:22;;;;;;;10.95;9.95;;;24.80;99.90;;;;;;5089852;28;20212;-61
2021/06/10 08:52:50;;;;;;;10.23;9.23;;;24.80;99.90;;;;;;5090123;28;20200;-62
2021/06/10 08:55:18;;;;;;;10.35;9.35;;;24.80;99.90;;;;;;5090107;28;20243;-61
2021/06/10 08:57:49;;;;;;;9.30;8.50;;;24.90;99.90;;;;;;5089696;28;20231;-62
2021/06/10 09:00:29;;;;;;;9.23;8.35;;;24.90;99.90;;;;;;5090043;28;20215;-62
2021/06/10 09:02:59;;;;;;;8.88;7.95;;;24.90;99.90;;;;;;5090017;28;20208;-67
2021/06/10 09:05:29;;;;;;;9.32;8.52;;;25.00;99.90;;;;;;5089919;28;20187;-65
2021/06/10 09:07:58;;;;;;;11.48;10.48;;;25.00;99.90;;;;;;5089686;28;20227;-65
2021/06/10 09:10:28;;;;;;;10.68;9.73;;;25.00;99.90;;;;;;5087369;28;20657;-65
2021/06/10 09:13:00;;;;;;;10.90;9.52;;;25.00;99.90;;;;;;5068992;28;20635;-65
2021/06/10 09:15:32;;;;;;;10.02;9.02;;;25.00;99.90;;;;;;5069659;28;20322;-65
2021/06/10 09:18:01;;;;;;;11.77;10.57;;;25.00;99.90;;;;;;5069148;28;20620;-66
2021/06/10 09:20:41;;;;;;;10.35;9.45;;;25.10;99.90;;;;;;5089093;28;20591;-66
2021/06/10 09:23:17;;;;;;;10.05;9.13;;;25.20;99.90;;;;;;5090107;28;20188;-72
2021/06/10 09:25:48;;;;;;;11.15;10.15;;;25.20;99.90;;;;;;5091658;28;20176;-73
2021/06/10 09:28:15;;;;;;;8.63;7.90;;;25.20;99.90;;;;;;5091470;28;20231;-72
2021/06/10 09:30:47;;;;;;;10.77;9.88;;;25.10;99.90;;;;;;5089900;28;20211;-71
2021/06/10 09:33:21;;;;;;;9.30;8.30;;;25.20;99.90;;;;;;5090093;28;20234;-71
2021/06/10 09:35:49;;;;;;;9.32;8.48;;;25.30;99.90;;;;;;5089941;28;20185;-69
2021/06/10 09:38:20;;;;;;;11.52;10.48;;;25.40;99.90;;;;;;5091911;28;20212;-70
2021/06/10 09:40:48;;;;;;;9.20;8.40;;;25.50;99.90;;;;;;5091315;28;20211;-65
2021/06/10 09:43:16;;;;;;;9.57;8.85;;;25.50;99.90;;;;;;5089549;28;20196;-65
2021/06/10 09:45:48;;;;;;;10.68;9.63;;;25.70;99.90;;;;;;5089623;28;20204;-67
2021/06/10 09:48:30;;;;;;;9.13;8.23;;;25.60;99.90;;;;;;5088995;28;20209;-64
2021/06/10 09:50:58;;;;;;;8.07;7.47;;;25.60;99.90;;;;;;5088878;28;20184;-65
2021/06/10 09:53:28;;;;;;;9.73;8.93;;;25.60;99.90;;;;;;5083705;28;20208;-66
2021/06/10 09:55:58;;;;;;;8.45;7.63;;;25.60;99.90;;;;;;5068642;28;20220;-65
2021/06/10 09:58:39;;;;;;;9.43;8.52;;;25.80;99.90;;;;;;5068905;28;20264;-67
2021/06/10 10:01:11;;;;;;;10.30;9.40;;;26.10;99.90;;;;;;5068819;28;20188;-68
2021/06/10 10:03:41;;;;;;;9.18;8.38;;;26.20;99.90;;;;;;5068961;28;20189;-66
2021/06/10 10:06:19;;;;;;;7.35;6.75;;;26.20;99.90;;;;;;5050526;28;20279;-65
2021/06/10 10:08:50;;;;;;;7.68;6.97;;;26.30;99.90;;;;;;5068740;28;20305;-65
2021/06/10 10:11:18;;;;;;;7.85;7.25;;;26.50;99.90;;;;;;5068840;28;20196;-68
2021/06/10 10:13:47;;;;;;;8.60;7.90;;;26.70;99.90;;;;;;5068679;28;20331;-65
2021/06/10 10:16:19;;;;;;;8.15;7.45;;;26.70;99.90;;;;;;5068195;28;20292;-65
2021/06/10 10:18:50;;;;;;;8.00;7.40;;;26.50;99.90;;;;;;5078127;28;20196;-65
2021/06/10 10:21:25;;;;;;;7.90;7.20;;;26.30;99.90;;;;;;5092300;28;20278;-65
2021/06/10 10:23:55;;;;;;;7.30;6.63;;;26.00;99.90;;;;;;5080776;28;20284;-65
2021/06/10 10:26:23;;;;;;;7.35;6.72;;;25.70;99.90;;;;;;5071448;28;20230;-65
2021/06/10 10:28:50;;;;;;;8.15;7.45;;;25.50;99.90;;;;;;5071621;28;20213;-66
2021/06/10 10:31:18;;;;;;;7.47;6.88;;;25.40;99.90;;;;;;5072061;28;20234;-67
2021/06/10 10:33:47;;;;;;;6.55;6.05;;;25.40;99.90;;;;;;5071911;28;20690;-66
2021/06/10 10:36:26;;;;;;;6.72;6.22;;;25.30;99.90;;;;;;5071216;28;20185;-65
2021/06/10 10:39:08;;;;;;;7.35;6.75;;;25.30;99.90;;;;;;5072110;28;20606;-65
2021/06/10 10:41:48;;;;;;;8.05;7.25;;;25.40;99.90;;;;;;5071695;28;20204;-66
2021/06/10 10:44:21;;;;;;;6.78;6.28;;;25.40;99.90;;;;;;5071845;28;20191;-66
2021/06/10 10:47:10;;;;;;;7.78;7.18;;;25.50;99.90;;;;;;5071207;28;20212;-64
2021/06/10 10:49:43;;;;;;;6.53;5.95;;;25.70;99.90;;;;;;5066992;28;20220;-63
2021/06/10 10:52:30;;;;;;;6.95;6.43;;;25.70;99.90;;;;;;5071278;28;20196;-63
2021/06/10 10:55:17;;;;;;;7.78;7.10;;;25.70;99.90;;;;;;5071469;28;20181;-62
2021/06/10 10:57:45;;;;;;;8.15;7.35;;;25.70;99.90;;;;;;5071587;28;20195;-62
2021/06/10 11:00:20;;;;;;;7.50;6.82;;;25.70;99.90;;;;;;5071549;28;20201;-63
2021/06/10 11:03:16;;;;;;;7.40;6.80;;;25.90;99.90;;;;;;5071323;28;20277;-63
2021/06/10 11:05:44;;;;;;;7.13;6.53;;;26.00;99.90;;;;;;5070942;28;20200;-65
2021/06/10 11:08:13;;;;;;;7.20;6.60;;;26.00;99.90;;;;;;5070778;28;20235;-65
2021/06/10 11:11:02;;;;;;;6.78;6.18;;;26.10;99.90;;;;;;5071496;28;20610;-62
2021/06/10 11:13:46;;;;;;;7.60;7.00;;;26.00;99.90;;;;;;5071319;28;20264;-64
2021/06/10 11:16:14;;;;;;;7.50;6.78;;;26.10;99.90;;;;;;5070451;28;20654;-64
2021/06/10 11:18:47;;;;;;;7.65;7.00;;;26.30;99.90;;;;;;5077762;28;20192;-63
2021/06/10 11:21:48;;;;;;;6.60;6.00;;;26.30;99.90;;;;;;5091264;28;20187;-64
2021/06/10 11:24:22;;;;;;;5.65;5.15;;;26.30;99.90;;;;;;5075724;28;20231;-63
2021/06/10 11:27:03;;;;;;;4.70;4.05;;;26.30;99.90;;;;;;5070976;28;20646;-63
2021/06/10 11:29:31;;;;;;;5.55;4.00;;;26.30;99.90;;;;;;5070297;28;20677;-63
2021/06/10 11:32:18;;;;;;;4.35;4.05;;;26.10;99.90;;;;;;5071197;28;20197;-62
2021/06/10 11:34:50;;;;;;;4.95;4.55;;;25.60;99.90;;;;;;5071191;28;20201;-62
2021/06/10 11:37:23;;;;;;;5.43;5.03;;;25.20;99.90;;;;;;5070705;28;20185;-63
2021/06/10 11:39:53;;;;;;;5.35;4.95;;;25.00;99.90;;;;;;5071102;28;20193;-62
2021/06/10 11:42:23;;;;;;;4.80;4.38;;;24.80;99.90;;;;;;5071104;28;20296;-64
2021/06/10 11:44:52;;;;;;;5.00;4.43;;;24.80;99.90;;;;;;5070896;28;20208;-64
2021/06/10 11:47:29;;;;;;;5.00;4.60;;;25.00;99.90;;;;;;5070671;28;20679;-64
2021/06/10 11:49:56;;;;;;;5.30;4.90;;;25.30;99.90;;;;;;5070580;28;20250;-63
2021/06/10 11:52:23;;;;;;;5.95;5.50;;;25.50;99.90;;;;;;5070914;28;20291;-64
2021/06/10 11:55:07;;;;;;;5.90;5.40;;;25.70;99.90;;;;;;5070506;28;20204;-64
2021/06/10 11:57:34;;;;;;;6.03;5.60;;;26.00;99.90;;;;;;5070797;28;20192;-63
2021/06/10 12:00:08;;;;;;;6.25;5.43;;;26.20;99.90;;;;;;5070976;28;20196;-64
2021/06/10 12:02:37;;;;;;;6.13;5.70;;;26.40;99.90;;;;;;5070606;28;20589;-63
2021/06/10 12:05:15;;;;;;;6.90;6.25;;;26.70;99.90;;;;;;5070425;28;20215;-64
2021/06/10 12:07:42;;;;;;;8.73;8.02;;;27.00;99.90;;;;;;5070408;28;20617;-64
2021/06/10 12:10:18;;;;;;;7.53;6.88;;;26.90;99.90;;;;;;5070423;28;20308;-63
2021/06/10 12:12:47;;;;;;;7.82;7.00;;;27.00;99.90;;;;;;5070731;28;20181;-64
2021/06/10 12:15:33;;;;;;;7.97;7.38;;;27.10;99.90;;;;;;5070463;28;20214;-63
2021/06/10 12:18:03;;;;;;;8.25;7.45;;;26.90;99.90;;;;;;5070541;28;20199;-64
2021/06/10 12:20:51;;;;;;;7.53;6.93;;;26.90;99.90;;;;;;5090609;28;20241;-63
2021/06/10 12:23:23;;;;;;;9.32;8.52;;;26.70;99.90;;;;;;5090192;28;20196;-64
2021/06/10 12:25:54;;;;;;;9.50;8.60;;;26.70;99.90;;;;;;5090578;28;20218;-65
2021/06/10 12:28:39;;;;;;;8.75;7.97;;;26.60;99.90;;;;;;5090288;28;20318;-64
2021/06/10 12:31:15;;;;;;;8.85;8.15;;;26.40;99.90;;;;;;5090502;28;20180;-63
2021/06/10 12:33:45;;;;;;;8.57;7.97;;;26.40;99.90;;;;;;5090372;28;20644;-65
2021/06/10 12:36:17;;;;;;;7.90;7.20;;;26.40;99.90;;;;;;5090160;28;20291;-62
2021/06/10 12:38:52;;;;;;;8.23;7.63;;;26.50;99.90;;;;;;5090268;28;20191;-63
2021/06/10 12:41:25;;;;;;;8.55;7.72;;;26.60;99.90;;;;;;5084771;28;20199;-64
2021/06/10 12:44:04;;;;;;;7.30;6.70;;;26.50;99.90;;;;;;5066877;28;20720;-64
2021/06/10 12:46:42;;;;;;;7.05;6.38;;;26.40;99.90;;;;;;5049732;28;20778;-66